createdAt,value
2019-05-02T00:00:30.010Z,0.82
2019-05-02T00:01:29.691Z,1.01
2019-05-02T00:02:30.097Z,0.12
2019-05-02T00:03:29.780Z,1.41
2019-05-02T00:04:29.883Z,0.94
2019-05-02T00:05:32.157Z,0.67
2019-05-02T00:06:29.812Z,0.34
2019-05-02T00:07:29.747Z,0.54
2019-05-02T00:08:33.158Z,0.77
2019-05-02T00:09:29.758Z,1.82
2019-05-02T00:10:30.006Z,0.51
2019-05-02T00:11:29.768Z,0.33
2019-05-02T00:12:29.777Z,0.14
2019-05-02T00:13:30.526Z,0.70
2019-05-02T00:14:29.764Z,0.58
2019-05-02T00:15:33.050Z,1.16
2019-05-02T00:16:29.854Z,0.62
2019-05-02T00:17:29.834Z,1.33
2019-05-02T00:18:31.936Z,1.17
2019-05-02T00:19:29.846Z,1.47
2019-05-02T00:20:29.816Z,0.99
2019-05-02T00:21:32.949Z,1.17
2019-05-02T00:22:29.756Z,1.28
2019-05-02T00:23:29.906Z,1.32
2019-05-02T00:24:33.971Z,0.88
2019-05-02T00:25:29.827Z,1.06
2019-05-02T00:26:29.838Z,0.74
2019-05-02T00:27:32.855Z,0.58
2019-05-02T00:28:29.855Z,0.83
2019-05-02T00:29:29.956Z,0.05
2019-05-02T00:30:34.365Z,0.99
2019-05-02T00:31:29.964Z,1.13
2019-05-02T00:32:29.737Z,1.26
2019-05-02T00:33:34.493Z,1.63
2019-05-02T00:34:29.764Z,1.43
2019-05-02T00:35:30.175Z,1.36
2019-05-02T00:36:29.799Z,0.26
2019-05-02T00:37:29.814Z,0.16
2019-05-02T00:38:33.442Z,0.33
2019-05-02T00:39:30.924Z,1.20
2019-05-02T00:40:29.929Z,1.03
2019-05-02T00:41:33.239Z,1.09
2019-05-02T00:42:29.846Z,1.68
2019-05-02T00:43:34.427Z,1.25
2019-05-02T00:44:29.868Z,0.54
2019-05-02T00:45:29.868Z,0.27
2019-05-02T00:46:30.310Z,0.11
2019-05-02T00:47:29.803Z,0.34
2019-05-02T00:48:29.937Z,0.29
2019-05-02T00:49:30.764Z,0.44
2019-05-02T00:50:30.155Z,0.30
2019-05-02T00:51:29.875Z,0.18
2019-05-02T00:52:32.883Z,0.59
2019-05-02T00:53:29.798Z,0.37
2019-05-02T00:54:29.812Z,0.47
2019-05-02T00:55:33.897Z,1.32
2019-05-02T00:56:29.801Z,1.43
2019-05-02T00:57:29.985Z,1.10
2019-05-02T00:58:31.969Z,1.23
2019-05-02T00:59:29.948Z,1.55
2019-05-02T01:00:29.914Z,1.50
2019-05-02T01:01:31.076Z,0.87
2019-05-02T01:02:29.818Z,0.25
2019-05-02T01:03:31.906Z,0.60
2019-05-02T01:04:29.812Z,0.15
2019-05-02T01:05:33.735Z,0.06
2019-05-02T01:06:30.045Z,0.58
2019-05-02T01:07:29.912Z,0.87
2019-05-02T01:08:30.928Z,0.82
2019-05-02T01:09:29.905Z,0.16
2019-05-02T01:10:29.895Z,0.34
2019-05-02T01:11:32.204Z,0.06
2019-05-02T01:12:29.826Z,0.27
2019-05-02T01:13:29.839Z,0.52
2019-05-02T01:14:31.723Z,0.47
2019-05-02T01:15:29.979Z,0.28
2019-05-02T01:16:29.885Z,0.47
2019-05-02T01:17:30.981Z,0.29
2019-05-02T01:18:30.075Z,0.71
2019-05-02T01:19:29.994Z,0.24
2019-05-02T01:20:29.921Z,0.41
2019-05-02T01:21:34.062Z,0.23
2019-05-02T01:22:29.869Z,0.92
2019-05-02T01:23:29.800Z,1.55
2019-05-02T01:24:34.090Z,0.94
2019-05-02T01:25:29.961Z,0.09
2019-05-02T01:26:30.607Z,1.49
2019-05-02T01:27:29.862Z,1.25
2019-05-02T01:28:30.018Z,0.37
2019-05-02T01:29:31.694Z,0.29
2019-05-02T01:30:30.148Z,0.35
2019-05-02T01:31:29.878Z,0.36
2019-05-02T01:32:30.305Z,0.45
2019-05-02T01:33:30.066Z,0.57
2019-05-02T01:34:30.175Z,0.59
2019-05-02T01:35:31.612Z,0.40
2019-05-02T01:36:29.939Z,0.59
2019-05-02T01:37:29.917Z,1.20
2019-05-02T01:38:31.709Z,1.15
2019-05-02T01:39:30.015Z,1.62
2019-05-02T01:40:29.917Z,1.68
2019-05-02T01:41:31.071Z,1.32
2019-05-02T01:42:39.643Z,1.21
2019-05-02T01:43:29.972Z,1.44
2019-05-02T01:44:31.129Z,1.56
2019-05-02T01:45:29.817Z,1.13
2019-05-02T01:46:29.884Z,0.21
2019-05-02T01:47:34.149Z,0.40
2019-05-02T01:48:29.943Z,0.53
2019-05-02T01:49:30.050Z,0.94
2019-05-02T01:50:33.557Z,0.22
2019-05-02T01:51:30.095Z,0.29
2019-05-02T01:52:30.088Z,0.47
2019-05-02T01:53:34.221Z,1.12
2019-05-02T01:54:29.988Z,0.96
2019-05-02T01:55:29.854Z,0.17
2019-05-02T01:56:33.185Z,0.36
2019-05-02T01:57:29.941Z,1.00
2019-05-02T01:58:29.912Z,0.58
2019-05-02T01:59:33.846Z,1.18
2019-05-02T02:00:29.789Z,0.66
2019-05-02T02:01:30.179Z,0.12
2019-05-02T02:02:32.853Z,0.41
2019-05-02T02:03:30.131Z,0.40
2019-05-02T02:04:30.070Z,0.39
2019-05-02T02:05:32.218Z,0.50
2019-05-02T02:06:30.006Z,1.00
2019-05-02T02:07:30.011Z,1.15
2019-05-02T02:08:32.638Z,1.31
2019-05-02T02:09:30.120Z,1.18
2019-05-02T02:10:29.918Z,1.07
2019-05-02T02:11:33.778Z,1.20
2019-05-02T02:12:29.875Z,0.85
2019-05-02T02:13:31.265Z,0.13
2019-05-02T02:14:30.016Z,0.00
2019-05-02T02:15:30.278Z,0.15
2019-05-02T02:16:29.985Z,0.32
2019-05-02T02:17:29.925Z,0.12
2019-05-02T02:18:30.017Z,0.02
2019-05-02T02:19:29.807Z,0.10
2019-05-02T02:20:29.807Z,0.56
2019-05-02T02:21:29.993Z,1.02
2019-05-02T02:22:33.933Z,0.91
2019-05-02T02:23:30.073Z,0.69
2019-05-02T02:24:29.926Z,0.44
2019-05-02T02:25:32.150Z,1.44
2019-05-02T02:26:30.052Z,1.54
2019-05-02T02:27:29.875Z,0.82
2019-05-02T02:28:31.984Z,0.70
2019-05-02T02:29:29.954Z,1.25
2019-05-02T02:30:29.909Z,1.48
2019-05-02T02:31:29.884Z,0.80
2019-05-02T02:32:29.934Z,0.73
2019-05-02T02:33:29.955Z,0.02
2019-05-02T02:34:32.308Z,0.49
2019-05-02T02:35:30.043Z,0.35
2019-05-02T02:36:31.519Z,0.98
2019-05-02T02:37:30.044Z,0.03
2019-05-02T02:38:33.562Z,0.42
2019-05-02T02:39:30.027Z,0.93
2019-05-02T02:40:33.828Z,1.02
2019-05-02T02:41:30.175Z,0.83
2019-05-02T02:42:31.739Z,0.65
2019-05-02T02:43:33.432Z,0.27
2019-05-02T02:44:33.849Z,0.45
2019-05-02T02:45:29.896Z,0.03
2019-05-02T02:46:30.841Z,0.51
2019-05-02T02:47:30.082Z,0.34
2019-05-02T02:48:34.041Z,0.72
2019-05-02T02:49:30.012Z,1.03
2019-05-02T02:50:29.989Z,1.05
2019-05-02T02:51:29.889Z,0.92
2019-05-02T02:52:30.011Z,0.01
2019-05-02T02:53:30.017Z,0.58
2019-05-02T02:54:30.069Z,0.47
2019-05-02T02:55:29.928Z,0.34
2019-05-02T02:56:34.577Z,0.42
2019-05-02T02:57:30.070Z,0.02
2019-05-02T02:58:30.031Z,0.48
2019-05-02T02:59:29.971Z,0.01
2019-05-02T03:00:29.998Z,0.01
2019-05-02T03:01:31.296Z,0.15
2019-05-02T03:02:30.180Z,0.27
2019-05-02T03:03:30.643Z,1.29
2019-05-02T03:04:30.027Z,1.82
2019-05-02T03:05:30.072Z,0.71
2019-05-02T03:06:30.075Z,1.63
2019-05-02T03:07:30.019Z,0.55
2019-05-02T03:08:30.033Z,1.20
2019-05-02T03:09:30.133Z,1.09
2019-05-02T03:10:29.949Z,1.11
2019-05-02T03:11:30.097Z,1.49
2019-05-02T03:12:36.209Z,0.90
2019-05-02T03:13:29.994Z,0.06
2019-05-02T03:14:29.938Z,0.66
2019-05-02T03:15:29.950Z,1.05
2019-05-02T03:16:30.116Z,0.54
2019-05-02T03:17:29.916Z,0.36
2019-05-02T03:18:39.847Z,0.16
2019-05-02T03:19:30.001Z,1.56
2019-05-02T03:20:39.894Z,1.65
2019-05-02T03:21:30.072Z,1.62
2019-05-02T03:22:34.976Z,0.89
2019-05-02T03:23:29.958Z,1.51
2019-05-02T03:24:29.934Z,1.92
2019-05-02T03:25:48.999Z,0.81
2019-05-02T03:26:30.016Z,0.45
2019-05-02T03:27:36.856Z,0.59
2019-05-02T03:28:30.003Z,0.81
2019-05-02T03:29:40.062Z,1.07
2019-05-02T03:30:33.073Z,1.30
2019-05-02T03:31:31.455Z,1.50
2019-05-02T03:32:35.272Z,1.14
2019-05-02T03:33:30.023Z,0.97
2019-05-02T03:34:44.834Z,1.51
2019-05-02T03:35:41.846Z,2.38
2019-05-02T03:36:35.478Z,0.69
2019-05-02T03:37:30.089Z,0.79
2019-05-02T03:38:32.746Z,1.44
2019-05-02T03:39:30.061Z,1.19
2019-05-02T03:40:32.252Z,1.58
2019-05-02T03:41:30.060Z,1.66
2019-05-02T03:42:30.199Z,1.12
2019-05-02T03:43:29.952Z,1.45
2019-05-02T03:44:30.072Z,0.24
2019-05-02T03:45:32.269Z,1.75
2019-05-02T03:46:30.018Z,1.16
2019-05-02T03:47:30.073Z,1.38
2019-05-02T03:48:29.945Z,0.51
2019-05-02T03:49:30.047Z,1.04
2019-05-02T03:50:32.873Z,0.47
2019-05-02T03:51:30.024Z,1.38
2019-05-02T03:52:30.056Z,1.08
2019-05-02T03:53:30.190Z,1.17
2019-05-02T03:54:30.069Z,1.22
2019-05-02T03:55:33.266Z,0.80
2019-05-02T03:56:30.075Z,1.49
2019-05-02T03:57:33.185Z,1.35
2019-05-02T03:58:30.000Z,1.43
2019-05-02T03:59:38.264Z,1.16
2019-05-02T04:00:30.176Z,0.97
2019-05-02T04:01:34.854Z,0.39
2019-05-02T04:02:30.030Z,0.11
2019-05-02T04:03:33.849Z,0.64
2019-05-02T04:04:30.370Z,0.66
2019-05-02T04:05:33.823Z,0.58
2019-05-02T04:06:30.100Z,0.41
2019-05-02T04:07:39.747Z,0.38
2019-05-02T04:08:30.145Z,0.00
2019-05-02T04:09:32.099Z,0.35
2019-05-02T04:10:30.029Z,0.72
2019-05-02T04:11:37.822Z,0.68
2019-05-02T04:12:32.847Z,0.51
2019-05-02T04:13:35.642Z,0.65
2019-05-02T04:14:37.753Z,0.30
2019-05-02T04:15:35.012Z,0.25
2019-05-02T04:16:30.058Z,0.22
2019-05-02T04:17:35.408Z,0.73
2019-05-02T04:18:30.000Z,0.44
2019-05-02T04:19:34.953Z,0.42
2019-05-02T04:20:30.078Z,0.31
2019-05-02T04:21:30.045Z,0.45
2019-05-02T04:22:29.981Z,0.15
2019-05-02T04:23:30.037Z,0.21
2019-05-02T04:24:30.076Z,0.19
2019-05-02T04:25:33.973Z,0.28
2019-05-02T04:26:30.086Z,0.39
2019-05-02T04:27:34.038Z,0.33
2019-05-02T04:28:30.021Z,1.02
2019-05-02T04:29:31.094Z,0.24
2019-05-02T04:30:29.990Z,0.19
2019-05-02T04:31:32.275Z,0.36
2019-05-02T04:32:30.041Z,0.48
2019-05-02T04:33:34.672Z,0.56
2019-05-02T04:34:30.021Z,0.64
2019-05-02T04:35:34.954Z,0.30
2019-05-02T04:36:30.046Z,0.76
2019-05-02T04:37:34.417Z,0.77
2019-05-02T04:38:39.223Z,0.93
2019-05-02T04:39:30.141Z,0.15
2019-05-02T04:40:34.921Z,0.61
2019-05-02T04:41:31.784Z,0.47
2019-05-02T04:42:30.023Z,0.24
2019-05-02T04:43:30.048Z,0.58
2019-05-02T04:45:50.966Z,1.39
2019-05-02T04:46:31.266Z,0.94
2019-05-02T04:47:29.916Z,0.91
2019-05-02T04:48:34.836Z,0.24
2019-05-02T04:49:35.067Z,0.69
2019-05-02T04:50:30.091Z,0.78
2019-05-02T04:51:32.058Z,1.64
2019-05-02T04:52:30.069Z,1.72
2019-05-02T04:53:36.877Z,1.16
2019-05-02T04:54:32.298Z,1.06
2019-05-02T04:55:33.244Z,0.60
2019-05-02T04:56:30.021Z,0.75
2019-05-02T04:58:34.799Z,0.73
2019-05-02T04:59:32.908Z,0.65
2019-05-02T05:00:30.034Z,0.63
2019-05-02T05:01:41.502Z,0.56
2019-05-02T05:02:36.448Z,1.12
2019-05-02T05:03:30.019Z,0.51
2019-05-02T05:04:33.192Z,0.24
2019-05-02T05:05:31.386Z,0.39
2019-05-02T05:06:30.061Z,0.95
2019-05-02T05:07:31.234Z,0.89
2019-05-02T05:08:31.926Z,0.82
2019-05-02T05:09:30.119Z,1.63
2019-05-02T05:10:40.269Z,1.42
2019-05-02T05:11:30.077Z,0.91
2019-05-02T05:12:32.575Z,0.51
2019-05-02T05:13:30.305Z,0.23
2019-05-02T05:14:32.844Z,0.75
2019-05-02T05:15:38.327Z,0.66
2019-05-02T05:16:30.139Z,0.50
2019-05-02T05:17:32.957Z,0.36
2019-05-02T05:18:30.115Z,0.55
2019-05-02T05:19:32.795Z,0.40
2019-05-02T05:20:30.114Z,0.30
2019-05-02T05:21:30.224Z,0.18
2019-05-02T05:22:30.074Z,0.41
2019-05-02T05:23:30.145Z,0.12
2019-05-02T05:24:37.399Z,0.26
2019-05-02T05:25:30.051Z,0.68
2019-05-02T05:26:34.022Z,0.63
2019-05-02T05:27:30.138Z,0.97
2019-05-02T05:28:35.026Z,0.44
2019-05-02T05:29:30.049Z,0.75
2019-05-02T05:30:30.064Z,1.42
2019-05-02T05:31:30.085Z,1.27
2019-05-02T05:32:30.308Z,0.73
2019-05-02T05:33:30.127Z,0.10
2019-05-02T05:34:32.776Z,0.41
2019-05-02T05:35:30.259Z,0.98
2019-05-02T05:36:33.920Z,0.90
2019-05-02T05:37:30.048Z,0.81
2019-05-02T05:38:32.638Z,1.54
2019-05-02T05:39:30.092Z,1.12
2019-05-02T05:40:32.017Z,1.34
2019-05-02T05:41:30.073Z,0.83
2019-05-02T05:42:33.188Z,0.46
2019-05-02T05:43:30.237Z,1.03
2019-05-02T05:44:32.582Z,1.14
2019-05-02T05:45:30.173Z,1.04
2019-05-02T05:46:33.309Z,1.48
2019-05-02T05:47:30.129Z,1.80
2019-05-02T05:48:32.017Z,1.01
2019-05-02T05:49:30.140Z,0.98
2019-05-02T05:50:32.306Z,2.01
2019-05-02T05:51:30.023Z,1.20
2019-05-02T05:52:33.179Z,0.62
2019-05-02T05:53:30.224Z,0.40
2019-05-02T05:54:33.072Z,1.71
2019-05-02T05:55:31.613Z,0.64
2019-05-02T05:56:32.530Z,0.36
2019-05-02T05:57:30.131Z,0.68
2019-05-02T05:58:30.227Z,0.63
2019-05-02T05:59:32.057Z,0.43
2019-05-02T06:00:30.473Z,0.69
2019-05-02T06:01:33.938Z,0.52
2019-05-02T06:02:30.121Z,1.65
2019-05-02T06:03:34.041Z,0.67
2019-05-02T06:04:33.203Z,0.90
2019-05-02T06:05:33.212Z,1.71
2019-05-02T06:06:30.186Z,1.41
2019-05-02T06:07:33.670Z,1.46
2019-05-02T06:08:30.145Z,1.33
2019-05-02T06:09:31.289Z,1.40
2019-05-02T06:10:30.248Z,0.84
2019-05-02T06:11:30.341Z,0.41
2019-05-02T06:12:33.186Z,0.40
2019-05-02T06:13:30.131Z,1.31
2019-05-02T06:14:30.247Z,1.31
2019-05-02T06:15:33.969Z,1.22
2019-05-02T06:16:30.293Z,1.78
2019-05-02T06:17:30.463Z,1.87
2019-05-02T06:18:30.216Z,1.38
2019-05-02T06:19:30.299Z,1.07
2019-05-02T06:20:30.583Z,1.04
2019-05-02T06:21:30.131Z,0.99
2019-05-02T06:22:30.178Z,1.13
2019-05-02T06:23:31.079Z,1.12
2019-05-02T06:24:30.208Z,0.35
2019-05-02T06:25:34.009Z,1.32
2019-05-02T06:26:30.182Z,0.52
2019-05-02T06:27:30.471Z,0.56
2019-05-02T06:28:30.225Z,0.03
2019-05-02T06:29:30.242Z,0.24
2019-05-02T06:30:31.033Z,1.37
2019-05-02T06:31:30.110Z,0.71
2019-05-02T06:32:30.262Z,0.53
2019-05-02T06:33:30.838Z,0.69
2019-05-02T06:34:30.294Z,0.85
2019-05-02T06:35:30.266Z,1.37
2019-05-02T06:36:31.911Z,1.35
2019-05-02T06:37:30.311Z,0.36
2019-05-02T06:38:30.438Z,1.46
2019-05-02T06:39:31.872Z,1.04
2019-05-02T06:40:30.252Z,0.65
2019-05-02T06:41:30.122Z,0.49
2019-05-02T06:42:32.735Z,0.07
2019-05-02T06:43:30.142Z,0.67
2019-05-02T06:44:30.302Z,0.64
2019-05-02T06:45:32.224Z,0.48
2019-05-02T06:46:31.177Z,1.05
2019-05-02T06:47:30.270Z,0.79
2019-05-02T06:48:30.248Z,1.24
2019-05-02T06:49:30.260Z,1.00
2019-05-02T06:50:33.351Z,1.54
2019-05-02T06:51:30.216Z,0.58
2019-05-02T06:52:32.870Z,0.57
2019-05-02T06:53:30.208Z,1.00
2019-05-02T06:54:30.232Z,0.12
2019-05-02T06:55:36.179Z,0.11
2019-05-02T06:56:30.331Z,1.04
2019-05-02T06:57:30.138Z,1.17
2019-05-02T06:58:30.247Z,2.39
2019-05-02T06:59:30.292Z,1.70
2019-05-02T07:00:39.589Z,0.43
2019-05-02T07:01:30.192Z,0.45
2019-05-02T07:02:33.595Z,0.07
2019-05-02T07:03:30.246Z,0.69
2019-05-02T07:04:30.387Z,1.40
2019-05-02T07:05:30.220Z,0.62
2019-05-02T07:06:34.810Z,0.34
2019-05-02T07:07:31.344Z,0.39
2019-05-02T07:08:30.297Z,0.41
2019-05-02T07:09:40.342Z,0.61
2019-05-02T07:10:43.420Z,0.54
2019-05-02T07:11:33.315Z,1.13
2019-05-02T07:12:30.164Z,0.11
2019-05-02T07:13:36.320Z,1.35
2019-05-02T07:14:30.248Z,1.55
2019-05-02T07:15:33.555Z,1.66
2019-05-02T07:16:38.072Z,1.08
2019-05-02T07:17:32.052Z,0.86
2019-05-02T07:18:30.161Z,0.64
2019-05-02T07:19:30.450Z,0.42
2019-05-02T07:20:30.191Z,0.46
2019-05-02T07:21:30.457Z,0.44
2019-05-02T07:22:33.181Z,0.86
2019-05-02T07:23:30.344Z,0.68
2019-05-02T07:24:31.041Z,0.07
2019-05-02T07:25:30.293Z,0.17
2019-05-02T07:26:30.335Z,0.18
2019-05-02T07:27:33.591Z,0.69
2019-05-02T07:28:30.272Z,1.11
2019-05-02T07:29:30.382Z,0.74
2019-05-02T07:30:34.936Z,0.78
2019-05-02T07:31:30.218Z,0.86
2019-05-02T07:32:30.323Z,1.09
2019-05-02T07:33:32.255Z,0.59
2019-05-02T07:34:30.283Z,0.42
2019-05-02T07:35:30.282Z,0.50
2019-05-02T07:36:31.291Z,0.16
2019-05-02T07:37:30.203Z,0.86
2019-05-02T07:38:30.240Z,0.99
2019-05-02T07:39:30.229Z,0.68
2019-05-02T07:40:30.297Z,0.75
2019-05-02T07:41:30.355Z,0.50
2019-05-02T07:42:30.372Z,0.60
2019-05-02T07:43:30.288Z,0.01
2019-05-02T07:44:32.537Z,0.62
2019-05-02T07:45:30.277Z,0.48
2019-05-02T07:46:30.306Z,0.96
2019-05-02T07:47:34.527Z,1.32
2019-05-02T07:48:30.237Z,2.70
2019-05-02T07:49:32.280Z,2.15
2019-05-02T07:50:30.408Z,1.40
2019-05-02T07:51:30.341Z,0.54
2019-05-02T07:52:33.616Z,1.83
2019-05-02T07:53:30.266Z,0.71
2019-05-02T07:54:30.375Z,1.03
2019-05-02T07:55:30.909Z,1.13
2019-05-02T07:56:30.302Z,0.20
2019-05-02T07:57:32.255Z,0.65
2019-05-02T07:58:30.453Z,0.64
2019-05-02T07:59:30.547Z,1.42
2019-05-02T08:00:32.168Z,1.08
2019-05-02T08:01:30.338Z,1.10
2019-05-02T08:02:30.328Z,1.00
2019-05-02T08:03:33.444Z,0.71
2019-05-02T08:04:30.266Z,1.75
2019-05-02T08:05:30.378Z,1.14
2019-05-02T08:06:35.242Z,1.86
2019-05-02T08:07:34.298Z,1.94
2019-05-02T08:08:31.846Z,2.81
2019-05-02T08:09:30.279Z,2.76
2019-05-02T08:10:30.402Z,3.45
2019-05-02T08:11:32.226Z,2.17
2019-05-02T08:12:30.335Z,2.30
2019-05-02T08:13:31.504Z,2.57
2019-05-02T08:14:34.613Z,3.07
2019-05-02T08:15:30.344Z,1.45
2019-05-02T08:16:30.408Z,1.09
2019-05-02T08:17:30.484Z,2.00
2019-05-02T08:18:30.819Z,2.01
2019-05-02T08:19:30.339Z,2.88
2019-05-02T08:20:30.435Z,1.89
2019-05-02T08:21:32.485Z,1.68
2019-05-02T08:22:30.437Z,0.32
2019-05-02T08:23:30.277Z,1.02
2019-05-02T08:24:33.115Z,2.73
2019-05-02T08:25:30.299Z,1.06
2019-05-02T08:26:30.405Z,3.27
2019-05-02T08:27:34.561Z,2.80
2019-05-02T08:28:30.429Z,2.59
2019-05-02T08:29:30.739Z,3.06
2019-05-02T08:30:30.339Z,2.51
2019-05-02T08:31:30.384Z,2.80
2019-05-02T08:32:30.383Z,2.11
2019-05-02T08:33:34.908Z,2.30
2019-05-02T08:34:30.477Z,1.02
2019-05-02T08:35:30.325Z,2.38
2019-05-02T08:36:30.521Z,1.40
2019-05-02T08:37:30.427Z,0.77
2019-05-02T08:38:30.307Z,0.89
2019-05-02T08:39:33.774Z,1.07
2019-05-02T08:40:30.410Z,1.35
2019-05-02T08:41:30.417Z,1.67
2019-05-02T08:42:32.550Z,2.08
2019-05-02T08:43:30.312Z,3.03
2019-05-02T08:44:30.332Z,2.53
2019-05-02T08:45:32.987Z,2.54
2019-05-02T08:46:30.457Z,2.74
2019-05-02T08:47:30.538Z,1.04
2019-05-02T08:48:30.373Z,1.14
2019-05-02T08:49:30.531Z,1.15
2019-05-02T08:50:31.921Z,1.45
2019-05-02T08:51:30.434Z,0.96
2019-05-02T08:52:30.437Z,1.25
2019-05-02T08:53:30.352Z,2.09
2019-05-02T08:54:32.776Z,1.81
2019-05-02T08:55:30.384Z,1.20
2019-05-02T08:56:30.436Z,1.43
2019-05-02T08:57:34.511Z,1.10
2019-05-02T08:58:30.363Z,1.18
2019-05-02T08:59:30.502Z,1.09
2019-05-02T09:00:32.075Z,1.47
2019-05-02T09:01:35.296Z,0.78
2019-05-02T09:02:40.789Z,0.60
2019-05-02T09:03:38.866Z,0.49
2019-05-02T09:04:30.749Z,0.28
2019-05-02T09:05:30.466Z,0.03
2019-05-02T09:06:30.439Z,0.63
2019-05-02T09:07:31.618Z,1.34
2019-05-02T09:08:30.434Z,2.66
2019-05-02T09:09:30.367Z,2.57
2019-05-02T09:10:30.506Z,2.48
2019-05-02T09:11:30.371Z,0.80
2019-05-02T09:12:31.990Z,1.48
2019-05-02T09:13:32.866Z,1.16
2019-05-02T09:14:32.179Z,1.36
2019-05-02T09:15:31.745Z,1.60
2019-05-02T09:16:32.689Z,2.05
2019-05-02T09:17:36.075Z,3.12
2019-05-02T09:18:37.873Z,3.30
2019-05-02T09:19:34.567Z,1.24
2019-05-02T09:20:31.887Z,1.69
2019-05-02T09:21:34.233Z,2.09
2019-05-02T09:22:32.703Z,3.65
2019-05-02T09:23:33.266Z,2.24
2019-05-02T09:24:32.441Z,3.33
2019-05-02T09:25:32.424Z,0.92
2019-05-02T09:26:37.821Z,1.12
2019-05-02T09:27:31.855Z,2.77
2019-05-02T09:28:32.084Z,1.30
2019-05-02T09:29:32.586Z,0.89
2019-05-02T09:30:30.394Z,1.54
2019-05-02T09:31:31.977Z,2.39
2019-05-02T09:32:32.271Z,1.63
2019-05-02T09:33:32.238Z,1.13
2019-05-02T09:34:31.879Z,2.54
2019-05-02T09:35:30.360Z,1.75
2019-05-02T09:36:32.306Z,3.19
2019-05-02T09:37:32.128Z,3.68
2019-05-02T09:38:30.425Z,1.61
2019-05-02T09:39:34.929Z,2.64
2019-05-02T09:40:31.900Z,1.66
2019-05-02T09:41:32.482Z,1.04
2019-05-02T09:42:32.354Z,1.78
2019-05-02T09:43:37.428Z,2.43
2019-05-02T09:44:30.523Z,4.93
2019-05-02T09:45:35.796Z,3.01
2019-05-02T09:46:32.330Z,2.11
2019-05-02T09:47:33.074Z,2.07
2019-05-02T09:48:31.909Z,2.12
2019-05-02T09:49:32.362Z,0.86
2019-05-02T09:50:32.239Z,2.50
2019-05-02T09:51:32.305Z,2.60
2019-05-02T09:52:34.067Z,2.27
2019-05-02T09:53:32.330Z,1.99
2019-05-02T09:54:32.234Z,2.29
2019-05-02T09:55:31.803Z,3.64
2019-05-02T09:56:32.398Z,2.28
2019-05-02T09:57:31.929Z,1.82
2019-05-02T09:58:32.085Z,1.83
2019-05-02T09:59:33.143Z,5.18
2019-05-02T10:00:32.296Z,5.56
2019-05-02T10:01:31.728Z,3.60
2019-05-02T10:02:32.431Z,4.30
2019-05-02T10:03:31.869Z,6.25
2019-05-02T10:04:32.521Z,5.37
2019-05-02T10:05:32.240Z,7.24
2019-05-02T10:06:32.148Z,4.91
2019-05-02T10:07:32.364Z,4.51
2019-05-02T10:08:32.054Z,4.85
2019-05-02T10:09:32.279Z,3.91
2019-05-02T10:10:32.388Z,5.01
2019-05-02T10:11:32.185Z,2.30
2019-05-02T10:12:32.122Z,4.35
2019-05-02T10:13:31.838Z,4.51
2019-05-02T10:14:32.408Z,5.76
2019-05-02T10:15:32.554Z,5.49
2019-05-02T10:16:31.915Z,4.27
2019-05-02T10:17:32.208Z,2.45
2019-05-02T10:18:32.848Z,1.54
2019-05-02T10:19:32.538Z,4.74
2019-05-02T10:20:36.159Z,3.40
2019-05-02T10:21:31.812Z,2.97
2019-05-02T10:22:33.778Z,3.93
2019-05-02T10:23:32.144Z,1.87
2019-05-02T10:24:32.258Z,0.40
2019-05-02T10:25:38.308Z,1.80
2019-05-02T10:26:32.857Z,3.00
2019-05-02T10:27:32.273Z,3.84
2019-05-02T10:28:31.741Z,3.64
2019-05-02T10:29:32.741Z,1.62
2019-05-02T10:30:35.076Z,3.53
2019-05-02T10:31:33.408Z,1.67
2019-05-02T10:32:32.382Z,2.30
2019-05-02T10:33:33.699Z,4.18
2019-05-02T10:34:32.804Z,2.69
2019-05-02T10:35:37.448Z,1.19
2019-05-02T10:36:32.556Z,2.08
2019-05-02T10:37:38.009Z,3.14
2019-05-02T10:38:32.479Z,3.88
2019-05-02T10:39:33.976Z,2.98
2019-05-02T10:40:32.164Z,1.26
2019-05-02T10:41:33.527Z,1.45
2019-05-02T10:42:32.443Z,1.08
2019-05-02T10:43:30.405Z,1.53
2019-05-02T10:44:32.777Z,1.09
2019-05-02T10:45:32.048Z,1.74
2019-05-02T10:46:33.435Z,2.42
2019-05-02T10:47:32.309Z,3.61
2019-05-02T10:48:32.932Z,1.93
2019-05-02T10:49:32.061Z,2.35
2019-05-02T10:50:32.748Z,3.42
2019-05-02T10:51:31.622Z,3.02
2019-05-02T10:52:33.981Z,7.59
2019-05-02T10:53:32.198Z,4.52
2019-05-02T10:54:33.877Z,4.13
2019-05-02T10:55:30.556Z,3.61
2019-05-02T10:56:32.430Z,3.42
2019-05-02T10:57:32.531Z,5.08
2019-05-02T10:58:31.994Z,4.65
2019-05-02T10:59:32.628Z,6.21
2019-05-02T11:00:32.454Z,3.12
2019-05-02T11:01:32.336Z,1.40
2019-05-02T11:02:32.604Z,1.39
2019-05-02T11:03:31.959Z,3.15
2019-05-02T11:04:32.350Z,2.32
2019-05-02T11:05:31.581Z,1.38
2019-05-02T11:06:32.357Z,3.43
2019-05-02T11:07:32.502Z,3.67
2019-05-02T11:08:31.918Z,2.61
2019-05-02T11:09:31.907Z,1.85
2019-05-02T11:10:32.326Z,3.80
2019-05-02T11:11:32.238Z,2.87
2019-05-02T11:12:41.035Z,3.12
2019-05-02T11:13:32.250Z,2.61
2019-05-02T11:14:31.898Z,2.21
2019-05-02T11:15:32.509Z,2.67
2019-05-02T11:16:32.141Z,2.84
2019-05-02T11:17:32.352Z,2.38
2019-05-02T11:18:40.201Z,1.59
2019-05-02T11:19:31.817Z,2.56
2019-05-02T11:20:31.858Z,3.08
2019-05-02T11:21:32.193Z,1.55
2019-05-02T11:22:32.134Z,3.06
2019-05-02T11:23:32.752Z,5.18
2019-05-02T11:24:31.628Z,2.37
2019-05-02T11:25:31.942Z,2.79
2019-05-02T11:26:32.492Z,0.92
2019-05-02T11:27:32.755Z,4.11
2019-05-02T11:28:32.353Z,3.88
2019-05-02T11:29:32.209Z,3.14
2019-05-02T11:30:31.992Z,1.89
2019-05-02T11:31:32.470Z,3.73
2019-05-02T11:32:32.565Z,0.72
2019-05-02T11:33:32.461Z,2.39
2019-05-02T11:34:32.493Z,2.02
2019-05-02T11:35:31.928Z,3.17
2019-05-02T11:36:32.626Z,2.48
2019-05-02T11:37:32.333Z,2.21
2019-05-02T11:38:43.514Z,1.64
2019-05-02T11:39:37.095Z,3.25
2019-05-02T11:40:32.161Z,2.07
2019-05-02T11:41:31.775Z,1.57
2019-05-02T11:42:32.351Z,1.85
2019-05-02T11:43:32.517Z,2.11
2019-05-02T11:44:32.476Z,2.56
2019-05-02T11:45:32.345Z,2.43
2019-05-02T11:46:32.869Z,1.91
2019-05-02T11:47:32.708Z,3.07
2019-05-02T11:48:31.982Z,3.00
2019-05-02T11:49:32.027Z,1.55
2019-05-02T11:50:31.980Z,1.55
2019-05-02T11:51:32.599Z,1.33
2019-05-02T11:52:33.017Z,1.85
2019-05-02T11:53:32.530Z,2.90
2019-05-02T11:54:31.961Z,4.25
2019-05-02T11:55:31.912Z,3.09
2019-05-02T11:56:32.984Z,1.40
2019-05-02T11:57:33.019Z,3.02
2019-05-02T11:58:32.522Z,0.75
2019-05-02T11:59:31.953Z,2.19
2019-05-02T12:00:32.375Z,1.39
2019-05-02T12:01:37.112Z,1.41
2019-05-02T12:02:32.008Z,2.10
2019-05-02T12:03:34.553Z,1.44
2019-05-02T12:04:32.565Z,0.68
2019-05-02T12:05:33.801Z,1.53
2019-05-02T12:06:33.305Z,2.20
2019-05-02T12:07:32.349Z,5.92
2019-05-02T12:08:31.904Z,2.18
2019-05-02T12:09:31.965Z,2.14
2019-05-02T12:10:34.796Z,4.43
2019-05-02T12:11:32.355Z,4.67
2019-05-02T12:12:32.479Z,4.63
2019-05-02T12:13:32.313Z,1.79
2019-05-02T12:14:32.835Z,1.25
2019-05-02T12:15:32.373Z,1.49
2019-05-02T12:16:32.310Z,2.04
2019-05-02T12:17:32.553Z,0.68
2019-05-02T12:18:32.580Z,5.29
2019-05-02T12:20:33.902Z,4.85
2019-05-02T12:21:32.493Z,2.88
2019-05-02T12:22:32.472Z,2.20
2019-05-02T12:23:32.048Z,3.79
2019-05-02T12:24:31.930Z,2.40
2019-05-02T12:25:32.768Z,5.05
2019-05-02T12:26:32.447Z,3.44
2019-05-02T12:27:31.824Z,3.02
2019-05-02T12:28:32.389Z,4.59
2019-05-02T12:29:30.648Z,6.30
2019-05-02T12:30:34.151Z,3.19
2019-05-02T12:31:32.455Z,3.41
2019-05-02T12:32:30.747Z,5.54
2019-05-02T12:33:31.759Z,3.61
2019-05-02T12:34:32.454Z,2.46
2019-05-02T12:35:32.205Z,1.97
2019-05-02T12:36:30.600Z,3.08
2019-05-02T12:37:32.615Z,4.16
2019-05-02T12:38:32.407Z,4.93
2019-05-02T12:39:31.704Z,6.80
2019-05-02T12:40:32.466Z,4.15
2019-05-02T12:41:32.908Z,3.71
2019-05-02T12:42:33.063Z,4.92
2019-05-02T12:43:31.883Z,4.32
2019-05-02T12:44:31.874Z,4.68
2019-05-02T12:45:30.740Z,3.45
2019-05-02T12:46:31.722Z,2.35
2019-05-02T12:47:33.301Z,3.32
2019-05-02T12:48:32.806Z,3.35
2019-05-02T12:49:32.459Z,4.72
2019-05-02T12:50:32.182Z,3.84
2019-05-02T12:51:31.961Z,6.74
2019-05-02T12:52:32.057Z,6.38
2019-05-02T12:53:32.568Z,3.34
2019-05-02T12:54:32.508Z,4.14
2019-05-02T12:55:32.587Z,4.08
2019-05-02T12:56:32.394Z,2.40
2019-05-02T12:57:32.090Z,6.07
2019-05-02T12:58:32.486Z,6.32
2019-05-02T12:59:32.230Z,9.37
2019-05-02T13:00:32.018Z,7.97
2019-05-02T13:01:32.727Z,8.11
2019-05-02T13:02:32.117Z,5.04
2019-05-02T13:03:31.693Z,6.46
2019-05-02T13:04:32.285Z,6.78
2019-05-02T13:05:31.785Z,7.49
2019-05-02T13:06:32.811Z,5.22
2019-05-02T13:07:31.748Z,4.50
2019-05-02T13:08:32.352Z,4.26
2019-05-02T13:09:32.584Z,4.38
2019-05-02T13:10:32.676Z,3.92
2019-05-02T13:11:32.129Z,3.41
2019-05-02T13:12:32.285Z,4.81
2019-05-02T13:13:32.637Z,9.91
2019-05-02T13:14:31.869Z,7.83
2019-05-02T13:15:32.813Z,6.21
2019-05-02T13:16:33.537Z,6.92
2019-05-02T13:17:35.735Z,7.65
2019-05-02T13:18:34.802Z,6.91
2019-05-02T13:19:38.188Z,4.35
2019-05-02T13:20:34.772Z,1.92
2019-05-02T13:21:40.124Z,2.76